Time;durP1;ratioP1;P1;durP2;ratioP2;P2;SDS_P1;SDS_P2;PMS_P1;PMS_P2;Temp;Humidity;BMP_temperature;BMP_pressure;BME280_temperature;BME280_humidity;BME280_pressure;Samples;Min_cycle;Max_cycle;Signal;HPM_P1;HPM_P2
2023/05/29 00:00:51;;;;;;;1.27;0.70;;;;;;;;;;5056755;28;20569;-59
2023/05/29 00:03:25;;;;;;;1.23;0.85;;;;;;;;;;5056343;28;20208;-57
2023/05/29 00:05:53;;;;;;;1.08;0.80;;;;;;;;;;5056474;28;20196;-57
2023/05/29 00:08:21;;;;;;;2.00;0.75;;;;;;;;;;5056021;28;20668;-58
2023/05/29 00:10:48;;;;;;;2.42;0.90;;;;;;;;;;5021119;28;20200;-57
2023/05/29 00:13:15;;;;;;;3.30;1.15;;;;;;;;;;5056202;28;20261;-57
2023/05/29 00:15:42;;;;;;;3.17;1.25;;;;;;;;;;5056159;28;20226;-59
2023/05/29 00:18:10;;;;;;;1.33;0.90;;;;;;;;;;5056057;28;20267;-58
2023/05/29 00:20:37;;;;;;;2.22;1.00;;;;;;;;;;5055815;28;20220;-58
2023/05/29 00:23:06;;;;;;;3.28;1.08;;;;;;;;;;5055666;28;20212;-58
2023/05/29 00:25:33;;;;;;;2.00;1.10;;;;;;;;;;5055697;28;20204;-59
2023/05/29 00:28:01;;;;;;;1.00;0.90;;;;;;;;;;5055797;28;20579;-59
2023/05/29 00:30:28;;;;;;;1.52;0.80;;;;;;;;;;5055620;28;20204;-57
2023/05/29 00:32:56;;;;;;;1.48;0.95;;;;;;;;;;5037500;28;20564;-57
2023/05/29 00:35:23;;;;;;;5.03;1.27;;;;;;;;;;5055504;28;20600;-58
2023/05/29 00:37:51;;;;;;;1.05;0.80;;;;;;;;;;5038201;28;20562;-57
2023/05/29 00:40:18;;;;;;;1.92;1.02;;;;;;;;;;5055664;28;20569;-57
2023/05/29 00:42:45;;;;;;;3.13;1.10;;;;;;;;;;5055736;28;20243;-58
2023/05/29 00:45:13;;;;;;;4.88;1.02;;;;;;;;;;5037913;28;20610;-57
2023/05/29 00:47:41;;;;;;;2.80;1.20;;;;;;;;;;5037745;28;20208;-58
2023/05/29 00:50:09;;;;;;;2.72;1.20;;;;;;;;;;5055533;28;20223;-56
2023/05/29 00:52:37;;;;;;;0.98;0.88;;;;;;;;;;5055466;28;20200;-57
2023/05/29 00:55:04;;;;;;;2.58;0.80;;;;;;;;;;5055288;28;20278;-57
2023/05/29 00:57:33;;;;;;;1.70;0.90;;;;;;;;;;5055238;28;20207;-57
2023/05/29 01:00:05;;;;;;;2.35;1.27;;;;;;;;;;5037332;28;20228;-56
2023/05/29 01:02:32;;;;;;;2.30;1.02;;;;;;;;;;5037666;28;20250;-57
2023/05/29 01:04:59;;;;;;;3.38;1.38;;;;;;;;;;5054976;28;20204;-57
2023/05/29 01:07:26;;;;;;;1.00;0.80;;;;;;;;;;5055017;28;20668;-57
2023/05/29 01:09:54;;;;;;;1.35;1.08;;;;;;;;;;5037233;28;20207;-58
2023/05/29 01:12:24;;;;;;;1.48;1.20;;;;;;;;;;5054942;28;20574;-58
2023/05/29 01:15:01;;;;;;;1.23;1.13;;;;;;;;;;5054903;28;20228;-59
2023/05/29 01:17:33;;;;;;;2.08;0.88;;;;;;;;;;5037390;28;20204;-57
2023/05/29 01:20:23;;;;;;;1.50;1.20;;;;;;;;;;5037231;28;20703;-58
2023/05/29 01:22:51;;;;;;;5.50;1.30;;;;;;;;;;5037631;28;20584;-56
2023/05/29 01:25:56;;;;;;;3.80;1.30;;;;;;;;;;5036944;28;20200;-56
2023/05/29 01:28:26;;;;;;;2.47;1.50;;;;;;;;;;5051112;28;20675;-56
2023/05/29 01:30:54;;;;;;;2.10;1.10;;;;;;;;;;5036975;28;20244;-58
2023/05/29 01:33:21;;;;;;;2.10;1.20;;;;;;;;;;5054549;28;20204;-57
2023/05/29 01:35:50;;;;;;;1.25;0.98;;;;;;;;;;5054533;28;20257;-59
2023/05/29 01:38:17;;;;;;;3.60;1.20;;;;;;;;;;5036724;28;20211;-58
2023/05/29 01:40:44;;;;;;;2.10;0.93;;;;;;;;;;5036594;28;20559;-58
2023/05/29 01:43:12;;;;;;;1.85;1.10;;;;;;;;;;5036058;28;20232;-56
2023/05/29 01:45:41;;;;;;;1.92;1.02;;;;;;;;;;5020208;28;20207;-57
2023/05/29 01:48:09;;;;;;;2.05;0.98;;;;;;;;;;5036468;28;20258;-57
2023/05/29 01:50:37;;;;;;;2.85;1.20;;;;;;;;;;5036606;28;20204;-56
2023/05/29 01:53:04;;;;;;;1.65;1.02;;;;;;;;;;5053807;28;20644;-58
2023/05/29 01:55:31;;;;;;;2.20;1.00;;;;;;;;;;5053947;28;20204;-58
2023/05/29 01:57:59;;;;;;;3.20;1.00;;;;;;;;;;5036164;28;20211;-56
2023/05/29 02:00:26;;;;;;;1.35;0.80;;;;;;;;;;5019814;28;20203;-56
2023/05/29 02:02:54;;;;;;;3.35;1.40;;;;;;;;;;5036118;28;20211;-57
2023/05/29 02:05:22;;;;;;;2.72;1.08;;;;;;;;;;5053947;28;20200;-58
2023/05/29 02:07:50;;;;;;;2.78;1.30;;;;;;;;;;5053934;28;20211;-58
2023/05/29 02:10:17;;;;;;;2.13;1.30;;;;;;;;;;5036027;28;20206;-56
2023/05/29 02:12:44;;;;;;;1.33;1.08;;;;;;;;;;5035869;28;20212;-57
2023/05/29 02:15:11;;;;;;;1.45;0.90;;;;;;;;;;5035837;28;20201;-56
2023/05/29 02:17:41;;;;;;;1.73;1.00;;;;;;;;;;5035677;28;20204;-56
2023/05/29 02:20:09;;;;;;;1.63;1.23;;;;;;;;;;5053628;28;20246;-58
2023/05/29 02:22:37;;;;;;;1.65;1.00;;;;;;;;;;5035446;28;20262;-57
2023/05/29 02:25:04;;;;;;;2.10;1.10;;;;;;;;;;5053397;28;20263;-56
2023/05/29 02:27:33;;;;;;;1.50;1.00;;;;;;;;;;5053346;28;20204;-57
2023/05/29 02:30:00;;;;;;;1.65;0.90;;;;;;;;;;5053700;28;20207;-58
2023/05/29 02:32:29;;;;;;;1.27;0.93;;;;;;;;;;5053339;28;20207;-57
2023/05/29 02:34:57;;;;;;;2.50;1.15;;;;;;;;;;5053420;28;20208;-57
2023/05/29 02:37:25;;;;;;;1.73;1.10;;;;;;;;;;5035596;28;20200;-58
2023/05/29 02:39:52;;;;;;;3.33;1.08;;;;;;;;;;5035679;28;20208;-56
2023/05/29 02:42:20;;;;;;;1.73;1.13;;;;;;;;;;5035422;28;20272;-58
2023/05/29 02:44:47;;;;;;;1.33;0.80;;;;;;;;;;5035257;28;20567;-57
2023/05/29 02:47:17;;;;;;;1.80;0.93;;;;;;;;;;5053520;28;20218;-57
2023/05/29 02:49:44;;;;;;;2.05;1.10;;;;;;;;;;5035970;28;20204;-56
2023/05/29 02:52:12;;;;;;;1.52;0.88;;;;;;;;;;5053385;28;20208;-58
2023/05/29 02:54:38;;;;;;;1.85;1.05;;;;;;;;;;5037014;28;20206;-57
2023/05/29 02:57:06;;;;;;;2.47;1.33;;;;;;;;;;5042386;28;20204;-57
2023/05/29 02:59:33;;;;;;;1.92;1.25;;;;;;;;;;5060084;28;20235;-57
2023/05/29 03:02:01;;;;;;;1.30;0.77;;;;;;;;;;5040376;28;20230;-58
2023/05/29 03:04:28;;;;;;;2.40;1.30;;;;;;;;;;5042202;28;20544;-56
2023/05/29 03:06:56;;;;;;;4.10;1.20;;;;;;;;;;5058692;28;20203;-56
2023/05/29 03:09:23;;;;;;;1.65;1.00;;;;;;;;;;5040355;28;20200;-56
2023/05/29 03:11:51;;;;;;;1.50;1.02;;;;;;;;;;5040188;28;20261;-58
2023/05/29 03:14:18;;;;;;;1.88;1.00;;;;;;;;;;5039881;28;20195;-58
2023/05/29 03:16:46;;;;;;;2.30;0.80;;;;;;;;;;5040211;28;20208;-57
2023/05/29 03:19:13;;;;;;;0.93;0.65;;;;;;;;;;5039935;28;20249;-56
2023/05/29 03:21:41;;;;;;;1.98;1.08;;;;;;;;;;5039817;28;20289;-58
2023/05/29 03:24:08;;;;;;;2.20;1.17;;;;;;;;;;5039904;28;20211;-57
2023/05/29 03:26:36;;;;;;;1.95;1.10;;;;;;;;;;5041898;28;20208;-55
2023/05/29 03:29:03;;;;;;;1.13;0.95;;;;;;;;;;5059764;28;20227;-56
2023/05/29 03:31:32;;;;;;;2.63;1.13;;;;;;;;;;5036263;28;20654;-57
2023/05/29 03:33:59;;;;;;;1.98;0.95;;;;;;;;;;5053593;28;20211;-56
2023/05/29 03:36:49;;;;;;;1.65;1.20;;;;;;;;;;5054194;28;20215;-58
2023/05/29 03:39:17;;;;;;;1.48;1.10;;;;;;;;;;5037230;28;20199;-57
2023/05/29 03:41:47;;;;;;;0.70;0.70;;;;;;;;;;5029785;28;20295;-58
2023/05/29 03:44:14;;;;;;;1.23;0.98;;;;;;;;;;5028939;28;20216;-58
2023/05/29 03:46:42;;;;;;;1.35;1.10;;;;;;;;;;5032802;28;20235;-57
2023/05/29 03:49:09;;;;;;;1.50;1.00;;;;;;;;;;5034507;28;20205;-58
2023/05/29 03:51:37;;;;;;;2.30;1.45;;;;;;;;;;5028203;28;20209;-57
2023/05/29 03:54:05;;;;;;;3.90;1.52;;;;;;;;;;5032189;28;20288;-58
2023/05/29 03:56:35;;;;;;;3.05;1.50;;;;;;;;;;5027047;28;20324;-57
2023/05/29 03:59:03;;;;;;;2.80;1.55;;;;;;;;;;5027633;28;20232;-59
2023/05/29 04:01:32;;;;;;;3.80;1.55;;;;;;;;;;5025680;28;20233;-58
2023/05/29 04:03:59;;;;;;;1.90;1.30;;;;;;;;;;5033762;28;20570;-56
2023/05/29 04:06:26;;;;;;;1.90;1.38;;;;;;;;;;5033355;28;20263;-56
2023/05/29 04:08:53;;;;;;;1.65;1.38;;;;;;;;;;5033857;28;20705;-56
2023/05/29 04:11:22;;;;;;;2.10;1.20;;;;;;;;;;5028038;28;20226;-56
2023/05/29 04:13:49;;;;;;;3.40;1.30;;;;;;;;;;5014008;28;20236;-55
2023/05/29 04:16:16;;;;;;;2.35;1.35;;;;;;;;;;5015594;28;20225;-56
2023/05/29 04:18:43;;;;;;;4.05;1.40;;;;;;;;;;5022733;28;20220;-57
2023/05/29 04:21:11;;;;;;;2.85;1.10;;;;;;;;;;5026416;28;20220;-55
2023/05/29 04:23:38;;;;;;;2.45;1.63;;;;;;;;;;5018052;28;20224;-55
2023/05/29 04:26:06;;;;;;;5.22;1.33;;;;;;;;;;5035071;28;20224;-58
2023/05/29 04:28:37;;;;;;;4.75;1.45;;;;;;;;;;5033489;28;20231;-58
2023/05/29 04:31:06;;;;;;;1.70;1.30;;;;;;;;;;5033593;28;20225;-58
2023/05/29 04:33:36;;;;;;;1.90;1.15;;;;;;;;;;5033932;28;20640;-59
2023/05/29 04:36:05;;;;;;;1.85;1.20;;;;;;;;;;5033979;28;20229;-58
2023/05/29 04:38:33;;;;;;;2.83;1.10;;;;;;;;;;5032120;28;20221;-58
2023/05/29 04:41:00;;;;;;;1.17;1.05;;;;;;;;;;5032134;28;20236;-58
2023/05/29 04:43:28;;;;;;;1.27;1.10;;;;;;;;;;5006793;28;20251;-56
2023/05/29 04:46:07;;;;;;;1.98;1.30;;;;;;;;;;5023872;28;20262;-57
2023/05/29 04:48:40;;;;;;;2.47;1.42;;;;;;;;;;5021358;28;20212;-58
2023/05/29 04:51:10;;;;;;;7.85;1.67;;;;;;;;;;5019911;28;20232;-58
2023/05/29 04:53:40;;;;;;;2.22;1.00;;;;;;;;;;5023759;28;20220;-57
2023/05/29 04:56:09;;;;;;;4.38;1.80;;;;;;;;;;5021698;28;20221;-57
2023/05/29 04:58:36;;;;;;;1.77;0.93;;;;;;;;;;5022312;28;20221;-59
2023/05/29 05:01:04;;;;;;;4.35;1.50;;;;;;;;;;5021029;28;20213;-57
2023/05/29 05:03:33;;;;;;;3.38;1.55;;;;;;;;;;5022561;28;20225;-58
2023/05/29 05:06:06;;;;;;;5.20;1.33;;;;;;;;;;5025162;28;20755;-58
2023/05/29 05:08:34;;;;;;;4.47;2.10;;;;;;;;;;5022311;28;20240;-58
2023/05/29 05:11:02;;;;;;;3.70;1.25;;;;;;;;;;5024761;28;20227;-56
2023/05/29 05:13:29;;;;;;;4.13;1.40;;;;;;;;;;5026699;28;20248;-59
2023/05/29 05:15:57;;;;;;;1.83;1.20;;;;;;;;;;5024442;28;20670;-59
2023/05/29 05:18:24;;;;;;;2.03;1.40;;;;;;;;;;5022885;28;20718;-57
2023/05/29 05:20:58;;;;;;;2.28;1.08;;;;;;;;;;5022548;28;20199;-59
2023/05/29 05:23:26;;;;;;;5.60;1.35;;;;;;;;;;5021012;28;20233;-59
2023/05/29 05:25:53;;;;;;;3.25;1.38;;;;;;;;;;5020002;28;20692;-58
2023/05/29 05:28:22;;;;;;;0.85;0.82;;;;;;;;;;5013649;28;20213;-59
2023/05/29 05:30:49;;;;;;;1.63;1.10;;;;;;;;;;5012622;28;20205;-58
2023/05/29 05:33:17;;;;;;;3.17;1.52;;;;;;;;;;5012016;28;20206;-58
2023/05/29 05:35:44;;;;;;;1.90;1.38;;;;;;;;;;5012819;28;20244;-58
2023/05/29 05:38:12;;;;;;;3.67;1.20;;;;;;;;;;5014039;28;20255;-58
2023/05/29 05:40:39;;;;;;;2.30;1.20;;;;;;;;;;5013275;28;20316;-60
2023/05/29 05:43:14;;;;;;;1.98;1.30;;;;;;;;;;4997835;28;20320;-58
2023/05/29 05:46:05;;;;;;;1.65;0.82;;;;;;;;;;4986289;28;20197;-58
2023/05/29 05:48:34;;;;;;;3.33;1.20;;;;;;;;;;5013324;28;20202;-59
2023/05/29 05:51:02;;;;;;;2.20;1.23;;;;;;;;;;5013470;28;20209;-58
2023/05/29 05:53:30;;;;;;;2.15;1.17;;;;;;;;;;5013379;28;20306;-57
2023/05/29 05:55:57;;;;;;;1.40;1.10;;;;;;;;;;5013302;28;20209;-59
2023/05/29 05:58:25;;;;;;;4.55;0.98;;;;;;;;;;5013127;28;20284;-59
2023/05/29 06:00:52;;;;;;;1.83;1.10;;;;;;;;;;5013321;28;20201;-59
2023/05/29 06:03:20;;;;;;;1.58;1.15;;;;;;;;;;5014207;28;20760;-59
2023/05/29 06:05:56;;;;;;;2.08;1.35;;;;;;;;;;5013498;28;20577;-59
2023/05/29 06:08:24;;;;;;;2.22;0.98;;;;;;;;;;5028294;28;20201;-58
2023/05/29 06:10:53;;;;;;;1.48;0.95;;;;;;;;;;5033832;28;20669;-59
2023/05/29 06:13:20;;;;;;;1.55;0.98;;;;;;;;;;5033141;28;20326;-58
2023/05/29 06:15:52;;;;;;;1.10;0.80;;;;;;;;;;5032620;28;20193;-59
2023/05/29 06:18:19;;;;;;;2.25;0.98;;;;;;;;;;5033948;28;20205;-59
2023/05/29 06:20:47;;;;;;;3.42;1.08;;;;;;;;;;5032652;28;20204;-58
2023/05/29 06:23:14;;;;;;;1.98;1.08;;;;;;;;;;5032390;28;20220;-58
2023/05/29 06:25:42;;;;;;;2.45;1.00;;;;;;;;;;5032710;28;20212;-59
2023/05/29 06:28:09;;;;;;;1.95;1.27;;;;;;;;;;5032845;28;20235;-59
2023/05/29 06:30:36;;;;;;;1.80;0.82;;;;;;;;;;5033268;28;20205;-58
2023/05/29 06:33:06;;;;;;;1.70;1.15;;;;;;;;;;5032619;28;20205;-59
2023/05/29 06:35:36;;;;;;;1.33;0.95;;;;;;;;;;5032453;28;20211;-59
2023/05/29 06:38:03;;;;;;;1.63;1.05;;;;;;;;;;5032372;28;20211;-59
2023/05/29 06:40:31;;;;;;;1.80;0.93;;;;;;;;;;5032502;28;20205;-58
2023/05/29 06:42:58;;;;;;;1.92;1.08;;;;;;;;;;5032044;28;20701;-59
2023/05/29 06:45:38;;;;;;;1.80;1.13;;;;;;;;;;5032522;28;20193;-59
2023/05/29 06:48:05;;;;;;;3.65;1.20;;;;;;;;;;5011623;28;20263;-59
2023/05/29 06:50:33;;;;;;;2.13;0.88;;;;;;;;;;5011462;28;20204;-58
2023/05/29 06:53:19;;;;;;;1.60;1.02;;;;;;;;;;4995272;28;20237;-59
2023/05/29 06:55:48;;;;;;;2.58;1.08;;;;;;;;;;5011544;28;20209;-59
2023/05/29 06:58:15;;;;;;;1.45;1.00;;;;;;;;;;5011577;28;20235;-58
2023/05/29 07:00:42;;;;;;;1.83;1.08;;;;;;;;;;4995161;28;20256;-60
2023/05/29 07:03:27;;;;;;;1.50;0.90;;;;;;;;;;4995307;28;20684;-59
2023/05/29 07:05:55;;;;;;;2.58;1.10;;;;;;;;;;4988213;28;20746;-59
2023/05/29 07:08:22;;;;;;;1.70;0.80;;;;;;;;;;4975588;28;20623;-59
2023/05/29 07:10:51;;;;;;;1.60;1.08;;;;;;;;;;4975527;28;20221;-60
2023/05/29 07:13:20;;;;;;;8.18;1.27;;;;;;;;;;4980631;28;20205;-60
2023/05/29 07:15:51;;;;;;;3.38;1.17;;;;;;;;;;4994996;28;20212;-59
2023/05/29 07:18:23;;;;;;;1.55;0.85;;;;;;;;;;5015564;28;20262;-60
2023/05/29 07:20:50;;;;;;;1.42;0.88;;;;;;;;;;5033325;28;20266;-59
2023/05/29 07:23:20;;;;;;;1.52;0.90;;;;;;;;;;5031898;28;20225;-59
2023/05/29 07:25:47;;;;;;;1.58;1.00;;;;;;;;;;5033118;28;20208;-60
2023/05/29 07:28:14;;;;;;;7.22;1.17;;;;;;;;;;5033295;28;20200;-59
2023/05/29 07:30:49;;;;;;;2.05;1.00;;;;;;;;;;5032117;28;20204;-60
2023/05/29 07:33:16;;;;;;;2.15;1.02;;;;;;;;;;5032007;28;20296;-60
2023/05/29 07:35:44;;;;;;;2.42;0.70;;;;;;;;;;5031760;28;20234;-59
2023/05/29 07:38:11;;;;;;;0.90;0.75;;;;;;;;;;5031814;28;20259;-59
2023/05/29 07:40:41;;;;;;;3.13;0.82;;;;;;;;;;5031894;28;20258;-59
2023/05/29 07:43:20;;;;;;;1.45;0.93;;;;;;;;;;5029089;28;20233;-60
2023/05/29 07:45:55;;;;;;;1.88;0.90;;;;;;;;;;5015703;28;20203;-59
2023/05/29 07:48:23;;;;;;;2.97;0.80;;;;;;;;;;5015905;28;20264;-58
2023/05/29 07:50:51;;;;;;;2.00;0.73;;;;;;;;;;5015761;28;20209;-59
2023/05/29 07:53:19;;;;;;;1.83;1.20;;;;;;;;;;5015784;28;20205;-60
2023/05/29 07:55:48;;;;;;;1.33;0.75;;;;;;;;;;5015768;28;20205;-58
2023/05/29 07:58:16;;;;;;;1.33;1.00;;;;;;;;;;5015857;28;20213;-58
2023/05/29 08:00:44;;;;;;;2.65;0.75;;;;;;;;;;5015576;28;20205;-58
2023/05/29 08:03:12;;;;;;;3.13;1.33;;;;;;;;;;5015357;28;20232;-59
2023/05/29 08:05:59;;;;;;;1.08;0.80;;;;;;;;;;5016884;28;20212;-58
2023/05/29 08:08:27;;;;;;;0.95;0.60;;;;;;;;;;5015697;28;20228;-59
2023/05/29 08:10:55;;;;;;;1.00;0.68;;;;;;;;;;5015482;28;20216;-58
2023/05/29 08:13:23;;;;;;;3.13;0.50;;;;;;;;;;5015252;28;20654;-59
2023/05/29 08:15:50;;;;;;;0.98;0.73;;;;;;;;;;5014971;28;20217;-58
2023/05/29 08:18:17;;;;;;;2.47;0.70;;;;;;;;;;5016519;28;20297;-59
2023/05/29 08:20:45;;;;;;;1.48;0.70;;;;;;;;;;5016142;28;20233;-59
2023/05/29 08:23:12;;;;;;;2.22;0.80;;;;;;;;;;5016549;28;20225;-59
2023/05/29 08:25:39;;;;;;;1.10;0.52;;;;;;;;;;5016207;28;20205;-58
2023/05/29 08:28:06;;;;;;;1.42;0.60;;;;;;;;;;5016076;28;20208;-59
2023/05/29 08:30:33;;;;;;;4.90;0.80;;;;;;;;;;5015899;28;20205;-59
2023/05/29 08:33:01;;;;;;;1.88;0.98;;;;;;;;;;5016192;28;20218;-59
2023/05/29 08:35:29;;;;;;;1.10;0.85;;;;;;;;;;5019070;28;20247;-60
2023/05/29 08:37:56;;;;;;;1.27;0.60;;;;;;;;;;5035757;28;20236;-59
2023/05/29 08:40:24;;;;;;;2.22;0.70;;;;;;;;;;5035639;28;20201;-59
2023/05/29 08:42:58;;;;;;;1.27;0.60;;;;;;;;;;5049391;28;20267;-58
2023/05/29 08:45:25;;;;;;;1.17;0.82;;;;;;;;;;5038151;28;20211;-59
2023/05/29 08:47:53;;;;;;;5.50;0.90;;;;;;;;;;5055609;28;20287;-59
2023/05/29 08:50:21;;;;;;;1.80;0.70;;;;;;;;;;5055484;28;20200;-59
2023/05/29 08:52:48;;;;;;;7.53;0.85;;;;;;;;;;5054857;28;20303;-59
2023/05/29 08:55:16;;;;;;;1.48;0.85;;;;;;;;;;5055202;28;20226;-59
2023/05/29 08:57:43;;;;;;;1.73;0.85;;;;;;;;;;5037809;28;20200;-59
2023/05/29 09:00:16;;;;;;;0.68;0.55;;;;;;;;;;5037618;28;20683;-59
2023/05/29 09:02:46;;;;;;;1.45;0.60;;;;;;;;;;5035430;28;20196;-59
2023/05/29 09:05:13;;;;;;;1.45;0.80;;;;;;;;;;5035317;28;20201;-59
2023/05/29 09:07:40;;;;;;;1.20;0.70;;;;;;;;;;5035253;28;20205;-59
2023/05/29 09:10:09;;;;;;;3.28;0.98;;;;;;;;;;5035029;28;20255;-60
2023/05/29 09:12:36;;;;;;;3.97;0.70;;;;;;;;;;5035221;28;20205;-59
2023/05/29 09:15:16;;;;;;;1.15;0.60;;;;;;;;;;5035344;28;20212;-59
2023/05/29 09:17:44;;;;;;;2.17;0.77;;;;;;;;;;5034919;28;20605;-59
2023/05/29 09:20:17;;;;;;;0.93;0.60;;;;;;;;;;5044684;28;20227;-59
2023/05/29 09:22:58;;;;;;;2.05;0.73;;;;;;;;;;5054584;28;20615;-60
2023/05/29 09:25:27;;;;;;;1.00;0.80;;;;;;;;;;5055013;28;20204;-59
2023/05/29 09:28:02;;;;;;;2.05;1.00;;;;;;;;;;5044518;28;20197;-58
2023/05/29 09:30:32;;;;;;;1.15;0.80;;;;;;;;;;5034691;28;20571;-58
2023/05/29 09:33:03;;;;;;;0.85;0.60;;;;;;;;;;5034643;28;20262;-59
2023/05/29 09:35:37;;;;;;;0.60;0.60;;;;;;;;;;5034552;28;20202;-58
2023/05/29 09:38:05;;;;;;;4.47;0.90;;;;;;;;;;5034539;28;20196;-59
2023/05/29 09:40:34;;;;;;;1.67;0.90;;;;;;;;;;5034411;28;20791;-58
2023/05/29 09:43:25;;;;;;;2.90;0.82;;;;;;;;;;5034567;28;20251;-60
2023/05/29 09:45:52;;;;;;;2.25;0.73;;;;;;;;;;5034617;28;20657;-59
2023/05/29 09:48:23;;;;;;;0.77;0.70;;;;;;;;;;5034519;28;20197;-59
2023/05/29 09:50:51;;;;;;;1.25;0.80;;;;;;;;;;5034653;28;20205;-59
2023/05/29 09:53:24;;;;;;;1.88;0.70;;;;;;;;;;5034229;28;20299;-59
2023/05/29 09:55:54;;;;;;;1.73;0.73;;;;;;;;;;5035975;28;20616;-59
2023/05/29 09:58:22;;;;;;;4.00;0.93;;;;;;;;;;5048131;28;20200;-59
2023/05/29 10:00:51;;;;;;;1.20;0.77;;;;;;;;;;5034318;28;20212;-60
2023/05/29 10:03:21;;;;;;;3.25;1.00;;;;;;;;;;5033995;28;20304;-60
2023/05/29 10:05:50;;;;;;;1.20;0.60;;;;;;;;;;5033568;28;20226;-58
2023/05/29 10:08:18;;;;;;;1.00;0.77;;;;;;;;;;5034125;28;20204;-59
2023/05/29 10:10:49;;;;;;;1.00;0.77;;;;;;;;;;5016520;28;20228;-58
2023/05/29 10:13:18;;;;;;;1.33;0.82;;;;;;;;;;5016863;28;20249;-59
2023/05/29 10:15:46;;;;;;;1.15;0.70;;;;;;;;;;5016541;28;20715;-58
2023/05/29 10:18:19;;;;;;;1.95;0.88;;;;;;;;;;5034053;28;20196;-59
2023/05/29 10:20:52;;;;;;;0.88;0.70;;;;;;;;;;5033865;28;20201;-59
2023/05/29 10:23:24;;;;;;;1.10;0.70;;;;;;;;;;5016992;28;20311;-59
2023/05/29 10:25:53;;;;;;;1.88;0.80;;;;;;;;;;5016513;28;20200;-59
2023/05/29 10:28:23;;;;;;;1.80;0.70;;;;;;;;;;5033814;28;20313;-59
2023/05/29 10:30:54;;;;;;;1.02;0.82;;;;;;;;;;5016520;28;20208;-60
2023/05/29 10:33:22;;;;;;;1.35;0.90;;;;;;;;;;5016280;28;20211;-60
2023/05/29 10:36:04;;;;;;;1.27;0.73;;;;;;;;;;5033523;28;20688;-59
2023/05/29 10:38:31;;;;;;;1.00;0.85;;;;;;;;;;5033838;28;20205;-59
2023/05/29 10:41:26;;;;;;;1.15;0.60;;;;;;;;;;5033445;28;20208;-59
2023/05/29 10:43:55;;;;;;;1.13;0.95;;;;;;;;;;5033289;28;20701;-59
2023/05/29 10:46:42;;;;;;;1.65;0.70;;;;;;;;;;5033874;28;20215;-60
2023/05/29 10:49:19;;;;;;;1.58;0.82;;;;;;;;;;5033869;28;20262;-59
2023/05/29 10:51:48;;;;;;;1.25;0.95;;;;;;;;;;5033503;28;20205;-59
2023/05/29 10:54:16;;;;;;;2.95;0.85;;;;;;;;;;5033291;28;20291;-59
2023/05/29 10:56:45;;;;;;;1.80;1.17;;;;;;;;;;5033227;28;20661;-59
2023/05/29 10:59:12;;;;;;;1.52;0.90;;;;;;;;;;5015796;28;20615;-59
2023/05/29 11:01:39;;;;;;;1.77;0.90;;;;;;;;;;5033354;28;20205;-60
2023/05/29 11:04:21;;;;;;;0.82;0.60;;;;;;;;;;5033452;28;20644;-58
2023/05/29 11:06:48;;;;;;;1.30;0.93;;;;;;;;;;5033333;28;20204;-59
2023/05/29 11:09:32;;;;;;;1.13;0.70;;;;;;;;;;5033459;28;20208;-60
2023/05/29 11:12:25;;;;;;;1.52;0.82;;;;;;;;;;5033525;28;20540;-60
2023/05/29 11:15:03;;;;;;;1.63;0.85;;;;;;;;;;5020717;28;20213;-59
2023/05/29 11:17:37;;;;;;;1.73;0.80;;;;;;;;;;5037196;28;20184;-60
2023/05/29 11:20:06;;;;;;;2.63;0.82;;;;;;;;;;5037395;28;20204;-59
2023/05/29 11:22:40;;;;;;;1.70;0.90;;;;;;;;;;5037280;28;20201;-59
2023/05/29 11:25:07;;;;;;;2.53;1.05;;;;;;;;;;5037279;28;20282;-59
2023/05/29 11:27:35;;;;;;;1.13;0.73;;;;;;;;;;5036963;28;20216;-59
2023/05/29 11:30:04;;;;;;;1.33;0.88;;;;;;;;;;5037233;28;20201;-59
2023/05/29 11:32:34;;;;;;;1.13;0.82;;;;;;;;;;5037064;28;20212;-59
2023/05/29 11:35:07;;;;;;;2.45;1.20;;;;;;;;;;5037321;28;20215;-58
2023/05/29 11:37:35;;;;;;;2.15;0.73;;;;;;;;;;5036840;28;20209;-59
2023/05/29 11:40:05;;;;;;;2.50;0.73;;;;;;;;;;5036750;28;20205;-59
2023/05/29 11:42:32;;;;;;;1.58;0.82;;;;;;;;;;5036955;28;20247;-59
2023/05/29 11:45:13;;;;;;;1.52;0.73;;;;;;;;;;5036523;28;20224;-59
2023/05/29 11:47:59;;;;;;;1.75;0.73;;;;;;;;;;5036786;28;20208;-60
2023/05/29 11:50:31;;;;;;;1.40;0.70;;;;;;;;;;5036880;28;20567;-59
2023/05/29 11:52:59;;;;;;;1.75;0.80;;;;;;;;;;5036699;28;20212;-59
2023/05/29 11:55:27;;;;;;;1.10;0.93;;;;;;;;;;5052152;28;20683;-59
2023/05/29 11:58:03;;;;;;;0.80;0.60;;;;;;;;;;5055055;28;20200;-59
2023/05/29 12:00:32;;;;;;;2.00;0.70;;;;;;;;;;5054897;28;20222;-59
2023/05/29 12:03:06;;;;;;;1.15;0.77;;;;;;;;;;5038284;28;20215;-59
2023/05/29 12:05:55;;;;;;;1.25;0.90;;;;;;;;;;5056425;28;20315;-59
2023/05/29 12:08:23;;;;;;;3.10;1.15;;;;;;;;;;5056390;28;20196;-60
2023/05/29 12:10:52;;;;;;;1.52;0.73;;;;;;;;;;5056088;28;20672;-59
2023/05/29 12:13:21;;;;;;;3.17;0.73;;;;;;;;;;5056358;28;20219;-60
2023/05/29 12:15:51;;;;;;;1.23;0.90;;;;;;;;;;5056212;28;20215;-59
2023/05/29 12:18:18;;;;;;;1.73;0.77;;;;;;;;;;5038478;28;20577;-58
2023/05/29 12:20:45;;;;;;;1.77;0.82;;;;;;;;;;5038542;28;20200;-59
2023/05/29 12:23:13;;;;;;;1.60;0.90;;;;;;;;;;5055359;28;20200;-58
2023/05/29 12:25:40;;;;;;;1.15;0.88;;;;;;;;;;5056046;28;20227;-59
2023/05/29 12:28:07;;;;;;;1.63;0.85;;;;;;;;;;5054849;28;20200;-60
2023/05/29 12:30:41;;;;;;;3.08;0.98;;;;;;;;;;5054629;28;20223;-59
2023/05/29 12:33:09;;;;;;;2.65;0.90;;;;;;;;;;5048265;28;20206;-58
2023/05/29 12:35:36;;;;;;;3.60;0.90;;;;;;;;;;5050963;28;20609;-59
2023/05/29 12:38:10;;;;;;;1.13;0.90;;;;;;;;;;5050200;28;20611;-58
2023/05/29 12:40:38;;;;;;;0.85;0.60;;;;;;;;;;5050771;28;20639;-59
2023/05/29 12:43:09;;;;;;;2.90;0.75;;;;;;;;;;5047513;28;20243;-58
2023/05/29 12:45:36;;;;;;;1.17;0.80;;;;;;;;;;5034526;28;20247;-58
2023/05/29 12:48:05;;;;;;;0.70;0.70;;;;;;;;;;5034224;28;20228;-57
2023/05/29 12:50:38;;;;;;;8.15;0.88;;;;;;;;;;5034106;28;20229;-57
2023/05/29 12:53:10;;;;;;;3.22;1.00;;;;;;;;;;5034734;28;20228;-58
2023/05/29 12:55:39;;;;;;;3.10;1.00;;;;;;;;;;5036940;28;20233;-59
2023/05/29 12:58:12;;;;;;;2.35;0.80;;;;;;;;;;5054512;28;20224;-55
2023/05/29 13:00:43;;;;;;;1.45;0.82;;;;;;;;;;5054168;28;20318;-57
2023/05/29 13:03:11;;;;;;;1.60;0.80;;;;;;;;;;5054023;28;20227;-58
2023/05/29 13:05:39;;;;;;;2.55;1.17;;;;;;;;;;5048710;28;20285;-58
2023/05/29 13:08:07;;;;;;;1.35;0.75;;;;;;;;;;5043779;28;20228;-58
2023/05/29 13:10:35;;;;;;;1.10;0.90;;;;;;;;;;5016668;28;20260;-57
2023/05/29 13:13:03;;;;;;;1.08;0.80;;;;;;;;;;5034475;28;20229;-55
2023/05/29 13:15:32;;;;;;;2.47;0.90;;;;;;;;;;5039110;28;20758;-60
2023/05/29 13:18:00;;;;;;;1.88;0.73;;;;;;;;;;5044609;28;20230;-57
2023/05/29 13:20:28;;;;;;;1.25;0.90;;;;;;;;;;5046274;28;20223;-57
2023/05/29 13:22:55;;;;;;;2.45;0.90;;;;;;;;;;5034783;28;20270;-57
2023/05/29 13:25:23;;;;;;;1.88;0.98;;;;;;;;;;5053515;28;20238;-57
2023/05/29 13:27:52;;;;;;;3.40;0.82;;;;;;;;;;5053849;28;20220;-58
2023/05/29 13:30:19;;;;;;;1.17;0.90;;;;;;;;;;5053379;28;20219;-55
2023/05/29 13:32:47;;;;;;;1.38;0.93;;;;;;;;;;5053598;28;20593;-57
2023/05/29 13:35:14;;;;;;;1.55;0.93;;;;;;;;;;5053638;28;20254;-57
2023/05/29 13:37:43;;;;;;;1.48;0.80;;;;;;;;;;5054008;28;20236;-53
2023/05/29 13:40:10;;;;;;;2.35;1.00;;;;;;;;;;5053481;28;20224;-57
2023/05/29 13:42:38;;;;;;;3.10;1.08;;;;;;;;;;5053726;28;20239;-58
2023/05/29 13:45:06;;;;;;;1.25;0.75;;;;;;;;;;5053263;28;20236;-57
2023/05/29 13:47:35;;;;;;;2.33;0.80;;;;;;;;;;5053238;28;20246;-58
2023/05/29 13:50:03;;;;;;;1.83;0.80;;;;;;;;;;5053902;28;20252;-57
2023/05/29 13:52:30;;;;;;;0.85;0.70;;;;;;;;;;5053148;28;20223;-58
2023/05/29 13:55:06;;;;;;;2.90;1.10;;;;;;;;;;5053593;28;20609;-56
2023/05/29 13:57:34;;;;;;;1.20;0.88;;;;;;;;;;5052876;28;20254;-57
2023/05/29 14:00:01;;;;;;;2.33;1.20;;;;;;;;;;5053695;28;20262;-57
2023/05/29 14:02:31;;;;;;;1.95;1.00;;;;;;;;;;5052679;28;20231;-57
2023/05/29 14:04:58;;;;;;;1.17;1.00;;;;;;;;;;5053324;28;20328;-57
2023/05/29 14:07:26;;;;;;;3.42;0.77;;;;;;;;;;5052661;28;20224;-57
2023/05/29 14:09:53;;;;;;;1.83;0.85;;;;;;;;;;5053294;28;20720;-56
2023/05/29 14:12:20;;;;;;;3.97;0.70;;;;;;;;;;5017510;28;20220;-58
2023/05/29 14:14:47;;;;;;;2.00;0.85;;;;;;;;;;5049597;28;20746;-56
2023/05/29 14:17:15;;;;;;;1.13;0.77;;;;;;;;;;5045581;28;20240;-59
2023/05/29 14:19:42;;;;;;;1.88;0.98;;;;;;;;;;5052867;28;20228;-55
2023/05/29 14:22:10;;;;;;;3.17;0.93;;;;;;;;;;5052925;28;20224;-54
2023/05/29 14:24:37;;;;;;;3.83;1.02;;;;;;;;;;5052621;28;20240;-57
2023/05/29 14:27:06;;;;;;;2.35;1.05;;;;;;;;;;5046397;28;20225;-56
2023/05/29 14:29:32;;;;;;;1.17;0.90;;;;;;;;;;5049076;28;21271;-54
2023/05/29 14:32:00;;;;;;;2.40;0.80;;;;;;;;;;5049454;28;20602;-57
2023/05/29 14:34:27;;;;;;;3.28;1.00;;;;;;;;;;5051906;28;20232;-57
2023/05/29 14:36:54;;;;;;;3.78;0.98;;;;;;;;;;5047125;28;20228;-55
2023/05/29 14:39:21;;;;;;;2.53;0.90;;;;;;;;;;5048600;28;20558;-54
2023/05/29 14:41:48;;;;;;;3.75;0.88;;;;;;;;;;5041843;28;20701;-56
2023/05/29 14:44:15;;;;;;;4.03;1.10;;;;;;;;;;5041429;28;20759;-55
2023/05/29 14:46:43;;;;;;;1.40;0.85;;;;;;;;;;5012579;28;20259;-53
2023/05/29 14:49:10;;;;;;;3.17;0.90;;;;;;;;;;5049515;28;20215;-57
2023/05/29 14:51:38;;;;;;;2.30;0.90;;;;;;;;;;5040682;28;20221;-55
2023/05/29 14:54:06;;;;;;;1.55;0.90;;;;;;;;;;5033188;28;20287;-58
2023/05/29 14:56:33;;;;;;;1.50;0.85;;;;;;;;;;5041312;28;20266;-54